Time;durP1;ratioP1;P1;durP2;ratioP2;P2;SDS_P1;SDS_P2;PMS_P1;PMS_P2;Temp;Humidity;BMP_temperature;BMP_pressure;BME280_temperature;BME280_humidity;BME280_pressure;Samples;Min_cycle;Max_cycle;Signal;HPM_P1;HPM_P2
2022/03/15 00:00:39;;;;;;;73.88;10.50;;;;;;;;;;5113311;28;20204;-68
2022/03/15 00:03:06;;;;;;;71.63;10.40;;;;;;;;;;5113050;28;20204;-67
2022/03/15 00:05:33;;;;;;;66.28;9.63;;;;;;;;;;5113007;28;20779;-68
2022/03/15 00:08:00;;;;;;;69.90;9.23;;;;;;;;;;5112298;28;20206;-67
2022/03/15 00:10:28;;;;;;;68.85;9.27;;;;;;;;;;5113323;28;20319;-68
2022/03/15 00:12:56;;;;;;;69.47;9.20;;;;;;;;;;5112855;27;20290;-68
2022/03/15 00:15:24;;;;;;;70.00;9.10;;;;;;;;;;5113088;28;20265;-67
2022/03/15 00:17:51;;;;;;;71.40;8.75;;;;;;;;;;5112114;28;20213;-68
2022/03/15 00:20:22;;;;;;;66.45;8.63;;;;;;;;;;5112830;28;20218;-69
2022/03/15 00:22:49;;;;;;;66.38;8.80;;;;;;;;;;5109818;28;20241;-68
2022/03/15 00:25:17;;;;;;;68.75;10.27;;;;;;;;;;5112709;28;20290;-67
2022/03/15 00:27:45;;;;;;;68.05;9.60;;;;;;;;;;5112212;28;20199;-68
2022/03/15 00:30:15;;;;;;;69.35;9.10;;;;;;;;;;5112745;28;20223;-68
2022/03/15 00:32:42;;;;;;;67.95;9.60;;;;;;;;;;5112478;28;20207;-68
2022/03/15 00:35:11;;;;;;;65.78;9.02;;;;;;;;;;5112765;28;20204;-68
2022/03/15 00:37:39;;;;;;;66.53;8.65;;;;;;;;;;5112344;28;20207;-69
2022/03/15 00:40:07;;;;;;;68.00;9.57;;;;;;;;;;5112831;28;20668;-68
2022/03/15 00:42:34;;;;;;;69.28;9.88;;;;;;;;;;5112591;28;20249;-68
2022/03/15 00:45:01;;;;;;;71.85;9.65;;;;;;;;;;5112607;28;20303;-70
2022/03/15 00:47:30;;;;;;;68.55;8.82;;;;;;;;;;5111565;28;20322;-67
2022/03/15 00:49:57;;;;;;;65.07;8.35;;;;;;;;;;5112571;28;20236;-67
2022/03/15 00:52:24;;;;;;;70.07;10.15;;;;;;;;;;5112458;28;20640;-67
2022/03/15 00:54:52;;;;;;;72.97;9.95;;;;;;;;;;5099394;28;20211;-69
2022/03/15 00:57:19;;;;;;;78.47;11.68;;;;;;;;;;5091256;28;20235;-67
2022/03/15 00:59:46;;;;;;;71.05;11.27;;;;;;;;;;5091860;28;20203;-68
2022/03/15 01:02:13;;;;;;;66.70;10.45;;;;;;;;;;5091745;28;20207;-67
2022/03/15 01:04:42;;;;;;;67.00;9.70;;;;;;;;;;5091946;28;20204;-68
2022/03/15 01:07:11;;;;;;;66.97;9.00;;;;;;;;;;5091266;28;20228;-67
2022/03/15 01:09:39;;;;;;;69.03;10.93;;;;;;;;;;5091026;28;20672;-67
2022/03/15 01:12:06;;;;;;;66.80;10.02;;;;;;;;;;5091792;28;20204;-67
2022/03/15 01:14:33;;;;;;;73.65;9.50;;;;;;;;;;5091572;28;20208;-69
2022/03/15 01:17:02;;;;;;;73.38;11.07;;;;;;;;;;5091587;28;20256;-68
2022/03/15 01:19:29;;;;;;;65.75;9.32;;;;;;;;;;5091369;28;20239;-67
2022/03/15 01:21:58;;;;;;;68.50;9.85;;;;;;;;;;5091758;28;20291;-70
2022/03/15 01:24:25;;;;;;;65.35;8.57;;;;;;;;;;5091657;28;20211;-67
2022/03/15 01:26:54;;;;;;;71.10;8.93;;;;;;;;;;5088854;28;20224;-70
2022/03/15 01:29:22;;;;;;;66.88;9.60;;;;;;;;;;5090656;28;20270;-67
2022/03/15 01:31:49;;;;;;;63.83;8.30;;;;;;;;;;5091630;28;20277;-67
2022/03/15 01:34:17;;;;;;;67.22;8.68;;;;;;;;;;5091656;28;20211;-67
2022/03/15 01:36:45;;;;;;;65.22;8.77;;;;;;;;;;5091411;28;20311;-67
2022/03/15 01:39:13;;;;;;;70.05;9.95;;;;;;;;;;5090822;28;20576;-67
2022/03/15 01:41:41;;;;;;;68.55;9.45;;;;;;;;;;5091235;28;20296;-67
2022/03/15 01:44:14;;;;;;;65.90;8.32;;;;;;;;;;5091351;28;20684;-67
2022/03/15 01:46:42;;;;;;;65.47;9.00;;;;;;;;;;5091736;28;20224;-67
2022/03/15 01:49:09;;;;;;;67.45;8.90;;;;;;;;;;5090780;28;20208;-67
2022/03/15 01:51:38;;;;;;;66.03;9.63;;;;;;;;;;5091340;28;20235;-67
2022/03/15 01:54:06;;;;;;;67.55;9.73;;;;;;;;;;5091310;28;20293;-67
2022/03/15 01:56:34;;;;;;;68.07;9.20;;;;;;;;;;5091250;28;20330;-67
2022/03/15 01:59:01;;;;;;;66.68;9.60;;;;;;;;;;5087999;28;20291;-70
2022/03/15 02:01:28;;;;;;;65.63;8.65;;;;;;;;;;5091345;28;20201;-68
2022/03/15 02:03:56;;;;;;;69.95;8.68;;;;;;;;;;5091204;28;20598;-68
2022/03/15 02:06:23;;;;;;;66.35;8.23;;;;;;;;;;5091387;28;20285;-67
2022/03/15 02:08:50;;;;;;;68.00;8.32;;;;;;;;;;5090420;28;20208;-70
2022/03/15 02:11:17;;;;;;;67.45;8.77;;;;;;;;;;5091380;28;20592;-68
2022/03/15 02:13:47;;;;;;;65.60;10.15;;;;;;;;;;5091056;28;20210;-68
2022/03/15 02:16:14;;;;;;;66.22;8.48;;;;;;;;;;5091592;28;20232;-71
2022/03/15 02:18:41;;;;;;;71.40;9.57;;;;;;;;;;5090347;28;20300;-68
2022/03/15 02:21:10;;;;;;;71.10;7.97;;;;;;;;;;5094448;28;20294;-69
2022/03/15 02:23:37;;;;;;;66.57;8.57;;;;;;;;;;5094800;28;20204;-66
2022/03/15 02:26:04;;;;;;;67.88;8.95;;;;;;;;;;5094575;28;20224;-68
2022/03/15 02:28:31;;;;;;;67.85;8.68;;;;;;;;;;5093152;28;20200;-67
2022/03/15 02:30:58;;;;;;;66.72;8.60;;;;;;;;;;5114829;28;20314;-68
2022/03/15 02:33:26;;;;;;;66.45;8.02;;;;;;;;;;5114918;28;20233;-66
2022/03/15 02:35:53;;;;;;;72.07;9.15;;;;;;;;;;5109520;28;20228;-68
2022/03/15 02:38:22;;;;;;;65.13;9.02;;;;;;;;;;5114803;28;20199;-68
2022/03/15 02:40:49;;;;;;;65.88;7.53;;;;;;;;;;5115251;28;20204;-68
2022/03/15 02:43:16;;;;;;;64.78;8.45;;;;;;;;;;5114669;28;20703;-68
2022/03/15 02:45:43;;;;;;;66.25;8.88;;;;;;;;;;5114566;28;20739;-68
2022/03/15 02:48:11;;;;;;;70.40;8.30;;;;;;;;;;5114054;28;20211;-70
2022/03/15 02:50:38;;;;;;;64.38;8.32;;;;;;;;;;5114924;28;20750;-68
2022/03/15 02:53:05;;;;;;;67.97;8.55;;;;;;;;;;5114421;28;20211;-69
2022/03/15 02:55:34;;;;;;;66.82;7.93;;;;;;;;;;5114647;27;20219;-68
2022/03/15 02:58:02;;;;;;;66.18;9.05;;;;;;;;;;5113938;28;20299;-69
2022/03/15 03:00:29;;;;;;;67.95;7.97;;;;;;;;;;5106484;28;20197;-69
2022/03/15 03:02:57;;;;;;;64.97;8.25;;;;;;;;;;5094120;28;20640;-67
2022/03/15 03:05:24;;;;;;;67.00;8.48;;;;;;;;;;5094205;28;20210;-68
2022/03/15 03:07:51;;;;;;;68.65;9.15;;;;;;;;;;5093880;28;20307;-69
2022/03/15 03:10:18;;;;;;;65.32;7.93;;;;;;;;;;5097068;28;20212;-68
2022/03/15 03:12:48;;;;;;;64.15;8.10;;;;;;;;;;5097833;28;20295;-69
2022/03/15 03:15:19;;;;;;;72.95;9.20;;;;;;;;;;5097818;28;20200;-68
2022/03/15 03:17:47;;;;;;;63.60;8.05;;;;;;;;;;5097457;28;20318;-69
2022/03/15 03:20:21;;;;;;;66.90;8.40;;;;;;;;;;5098247;28;20231;-68
2022/03/15 03:22:49;;;;;;;66.05;8.88;;;;;;;;;;5098435;28;20200;-67
2022/03/15 03:25:17;;;;;;;68.30;9.30;;;;;;;;;;5098143;28;20215;-67
2022/03/15 03:27:44;;;;;;;66.38;9.10;;;;;;;;;;5097224;28;20205;-69
2022/03/15 03:30:13;;;;;;;68.55;9.40;;;;;;;;;;5097462;28;20650;-67
2022/03/15 03:32:40;;;;;;;69.70;9.35;;;;;;;;;;5100573;28;20199;-70
2022/03/15 03:35:07;;;;;;;71.97;9.35;;;;;;;;;;5117159;28;20200;-67
2022/03/15 03:37:34;;;;;;;66.95;9.70;;;;;;;;;;5117001;28;20759;-67
2022/03/15 03:40:05;;;;;;;65.32;8.63;;;;;;;;;;5117556;28;20235;-67
2022/03/15 03:42:32;;;;;;;72.95;9.52;;;;;;;;;;5117115;28;20527;-67
2022/03/15 03:44:59;;;;;;;66.68;9.40;;;;;;;;;;5117711;28;20290;-67
2022/03/15 03:47:28;;;;;;;65.63;8.82;;;;;;;;;;5116412;28;20227;-69
2022/03/15 03:49:55;;;;;;;68.70;8.63;;;;;;;;;;5118120;28;20214;-68
2022/03/15 03:52:22;;;;;;;70.25;10.82;;;;;;;;;;5117716;28;20310;-67
2022/03/15 03:54:49;;;;;;;68.93;9.15;;;;;;;;;;5117977;28;20629;-68
2022/03/15 03:57:16;;;;;;;67.10;9.63;;;;;;;;;;5116238;28;20608;-67
2022/03/15 03:59:43;;;;;;;66.65;9.27;;;;;;;;;;5117076;28;20204;-67
2022/03/15 04:02:10;;;;;;;67.65;9.15;;;;;;;;;;5116886;28;20290;-69
2022/03/15 04:04:39;;;;;;;66.55;8.50;;;;;;;;;;5113027;28;20298;-68
2022/03/15 04:07:07;;;;;;;71.30;8.35;;;;;;;;;;5116033;28;20317;-67
2022/03/15 04:09:34;;;;;;;64.43;7.35;;;;;;;;;;5116454;28;20212;-67
2022/03/15 04:12:02;;;;;;;76.50;8.23;;;;;;;;;;5117335;27;20229;-68
2022/03/15 04:14:29;;;;;;;64.15;8.73;;;;;;;;;;5098802;28;20204;-69
2022/03/15 04:16:56;;;;;;;67.63;8.52;;;;;;;;;;5097081;28;20220;-69
2022/03/15 04:19:24;;;;;;;67.55;7.70;;;;;;;;;;5096459;28;20585;-68
2022/03/15 04:21:52;;;;;;;65.15;8.18;;;;;;;;;;5095975;28;20236;-67
2022/03/15 04:24:19;;;;;;;72.38;9.65;;;;;;;;;;5092932;28;20665;-68
2022/03/15 04:26:47;;;;;;;64.70;7.97;;;;;;;;;;5092430;28;20224;-67
2022/03/15 04:29:15;;;;;;;64.22;7.55;;;;;;;;;;5091503;28;20212;-68
2022/03/15 04:31:42;;;;;;;65.80;8.40;;;;;;;;;;5092433;28;20231;-67
2022/03/15 04:34:09;;;;;;;64.78;8.00;;;;;;;;;;5091271;28;20703;-67
2022/03/15 04:36:36;;;;;;;66.07;7.88;;;;;;;;;;5090253;28;20224;-69
2022/03/15 04:39:05;;;;;;;62.65;6.55;;;;;;;;;;5092423;28;20206;-69
2022/03/15 04:41:32;;;;;;;67.05;8.63;;;;;;;;;;5092039;28;20200;-68
2022/03/15 04:44:00;;;;;;;73.43;9.00;;;;;;;;;;5092336;28;20200;-71
2022/03/15 04:46:27;;;;;;;63.75;6.93;;;;;;;;;;5091955;28;20227;-68
2022/03/15 04:48:55;;;;;;;66.15;7.95;;;;;;;;;;5091376;28;20303;-70
2022/03/15 04:51:22;;;;;;;67.05;8.20;;;;;;;;;;5092088;28;20232;-69
2022/03/15 04:53:49;;;;;;;68.82;8.07;;;;;;;;;;5092042;28;20211;-68
2022/03/15 04:56:18;;;;;;;64.85;7.43;;;;;;;;;;5091857;28;20676;-69
2022/03/15 04:58:46;;;;;;;65.07;8.00;;;;;;;;;;5091415;28;20205;-68
2022/03/15 05:01:13;;;;;;;63.85;7.00;;;;;;;;;;5092099;28;20207;-68
2022/03/15 05:03:40;;;;;;;62.38;7.43;;;;;;;;;;5091882;28;20355;-71
2022/03/15 05:06:08;;;;;;;67.20;7.45;;;;;;;;;;5091029;28;20277;-69
2022/03/15 05:08:35;;;;;;;65.80;7.70;;;;;;;;;;5105242;28;20353;-69
2022/03/15 05:11:07;;;;;;;73.85;9.52;;;;;;;;;;5112286;28;20286;-68
2022/03/15 05:13:39;;;;;;;68.28;8.45;;;;;;;;;;5111959;28;20740;-69
2022/03/15 05:16:07;;;;;;;73.63;8.98;;;;;;;;;;5111913;28;20272;-69
2022/03/15 05:18:34;;;;;;;67.63;8.13;;;;;;;;;;5111496;28;20246;-67
2022/03/15 05:21:02;;;;;;;72.55;7.80;;;;;;;;;;5112069;28;20303;-67
2022/03/15 05:23:30;;;;;;;64.22;7.85;;;;;;;;;;5112269;28;20513;-68
2022/03/15 05:25:57;;;;;;;68.38;8.05;;;;;;;;;;5112104;28;20223;-68
2022/03/15 05:28:24;;;;;;;69.05;8.00;;;;;;;;;;5111691;28;20214;-67
2022/03/15 05:30:53;;;;;;;65.50;7.55;;;;;;;;;;5111945;28;20308;-67
2022/03/15 05:33:20;;;;;;;65.38;7.47;;;;;;;;;;5111903;28;20231;-67
2022/03/15 05:35:48;;;;;;;68.28;7.68;;;;;;;;;;5111668;28;20230;-67
2022/03/15 05:38:15;;;;;;;69.50;8.13;;;;;;;;;;5105701;28;20260;-68
2022/03/15 05:40:42;;;;;;;64.03;7.57;;;;;;;;;;5091549;28;20230;-66
2022/03/15 05:43:10;;;;;;;67.03;8.90;;;;;;;;;;5091359;28;20203;-67
2022/03/15 05:45:37;;;;;;;72.40;10.10;;;;;;;;;;5092315;28;20221;-67
2022/03/15 05:48:06;;;;;;;67.90;7.85;;;;;;;;;;5091063;28;20582;-68
2022/03/15 05:50:33;;;;;;;65.80;7.50;;;;;;;;;;5091730;28;20295;-67
2022/03/15 05:53:05;;;;;;;65.05;7.47;;;;;;;;;;5091444;28;20315;-68
2022/03/15 05:55:32;;;;;;;64.95;7.97;;;;;;;;;;5094351;28;20315;-68
2022/03/15 05:57:59;;;;;;;69.13;8.10;;;;;;;;;;5094916;28;20211;-67
2022/03/15 06:00:27;;;;;;;65.07;8.05;;;;;;;;;;5095546;28;20204;-68
2022/03/15 06:02:54;;;;;;;65.30;7.75;;;;;;;;;;5095255;28;20725;-68
2022/03/15 06:05:22;;;;;;;72.30;8.57;;;;;;;;;;5095299;28;20204;-67
2022/03/15 06:07:50;;;;;;;69.85;7.75;;;;;;;;;;5094719;28;20215;-68
2022/03/15 06:10:18;;;;;;;65.25;8.00;;;;;;;;;;5094430;28;20208;-68
2022/03/15 06:12:46;;;;;;;68.43;7.85;;;;;;;;;;5115522;28;20691;-67
2022/03/15 06:15:13;;;;;;;65.50;8.18;;;;;;;;;;5115285;28;20212;-68
2022/03/15 06:17:44;;;;;;;65.10;9.20;;;;;;;;;;5114923;28;20212;-69
2022/03/15 06:20:14;;;;;;;62.80;7.47;;;;;;;;;;5115256;28;20676;-68
2022/03/15 06:22:43;;;;;;;68.40;8.15;;;;;;;;;;5115507;28;20661;-68
2022/03/15 06:25:10;;;;;;;63.97;7.50;;;;;;;;;;5115180;28;20207;-68
2022/03/15 06:27:38;;;;;;;66.10;7.55;;;;;;;;;;5114361;28;20210;-69
2022/03/15 06:30:06;;;;;;;64.32;8.07;;;;;;;;;;5115204;28;20234;-69
2022/03/15 06:32:33;;;;;;;69.32;8.40;;;;;;;;;;5115167;28;20228;-69
2022/03/15 06:35:01;;;;;;;63.90;7.20;;;;;;;;;;5115503;28;20292;-67
2022/03/15 06:37:28;;;;;;;65.18;7.45;;;;;;;;;;5114364;28;20227;-68
2022/03/15 06:39:57;;;;;;;68.55;8.43;;;;;;;;;;5114992;28;20262;-68
2022/03/15 06:42:24;;;;;;;64.78;7.15;;;;;;;;;;5107026;27;20721;-68
2022/03/15 06:44:51;;;;;;;67.72;8.20;;;;;;;;;;5095075;28;20539;-69
2022/03/15 06:47:19;;;;;;;66.40;8.55;;;;;;;;;;5093902;28;20722;-68
2022/03/15 06:49:46;;;;;;;63.20;6.45;;;;;;;;;;5094374;28;20664;-69
2022/03/15 06:52:14;;;;;;;64.68;6.80;;;;;;;;;;5094464;28;20232;-69
2022/03/15 06:54:41;;;;;;;66.95;6.85;;;;;;;;;;5094243;28;20239;-70
2022/03/15 06:57:09;;;;;;;68.15;7.75;;;;;;;;;;5093561;28;20227;-69
2022/03/15 06:59:39;;;;;;;68.80;7.00;;;;;;;;;;5094271;28;20296;-68
2022/03/15 07:02:06;;;;;;;69.22;7.35;;;;;;;;;;5094199;28;20569;-68
2022/03/15 07:04:33;;;;;;;65.55;7.38;;;;;;;;;;5094055;28;20208;-70
2022/03/15 07:07:01;;;;;;;63.72;7.40;;;;;;;;;;5092825;28;20225;-68
2022/03/15 07:09:28;;;;;;;66.00;8.15;;;;;;;;;;5092743;28;20205;-70
2022/03/15 07:11:55;;;;;;;65.28;7.75;;;;;;;;;;5094420;28;20224;-68
2022/03/15 07:14:23;;;;;;;65.57;7.05;;;;;;;;;;5090165;28;20259;-69
2022/03/15 07:16:51;;;;;;;65.22;7.82;;;;;;;;;;5093845;28;20224;-68
2022/03/15 07:19:18;;;;;;;63.65;7.70;;;;;;;;;;5093143;28;20307;-68
2022/03/15 07:21:45;;;;;;;71.45;8.05;;;;;;;;;;5093730;28;20228;-69
2022/03/15 07:24:12;;;;;;;64.63;7.90;;;;;;;;;;5093363;28;20208;-70
2022/03/15 07:26:39;;;;;;;65.40;8.30;;;;;;;;;;5093986;28;20225;-68
2022/03/15 07:29:06;;;;;;;66.53;8.68;;;;;;;;;;5093048;28;20211;-69
2022/03/15 07:31:35;;;;;;;72.55;8.80;;;;;;;;;;5093515;28;20214;-68
2022/03/15 07:34:02;;;;;;;66.55;7.93;;;;;;;;;;5093506;28;20201;-68
2022/03/15 07:36:29;;;;;;;67.63;8.25;;;;;;;;;;5093085;28;20607;-69
2022/03/15 07:38:56;;;;;;;65.82;8.68;;;;;;;;;;5092594;28;20295;-69
2022/03/15 07:41:23;;;;;;;64.72;7.65;;;;;;;;;;5093118;28;20215;-68
2022/03/15 07:43:51;;;;;;;67.95;8.20;;;;;;;;;;5093102;28;20673;-70
2022/03/15 07:46:18;;;;;;;68.22;9.25;;;;;;;;;;5090859;28;20307;-68
2022/03/15 07:48:46;;;;;;;65.32;7.78;;;;;;;;;;5092664;28;20296;-69
2022/03/15 07:51:14;;;;;;;63.53;7.05;;;;;;;;;;5093122;28;20213;-68
2022/03/15 07:53:41;;;;;;;64.75;7.75;;;;;;;;;;5093175;28;20315;-69
2022/03/15 07:56:10;;;;;;;67.18;7.93;;;;;;;;;;5092977;28;20254;-69
2022/03/15 07:58:37;;;;;;;63.78;7.35;;;;;;;;;;5092215;28;20254;-69
2022/03/15 08:01:04;;;;;;;64.85;7.18;;;;;;;;;;5092960;28;20208;-68
2022/03/15 08:03:32;;;;;;;65.75;7.85;;;;;;;;;;5092907;28;20204;-68
2022/03/15 08:06:01;;;;;;;65.40;7.93;;;;;;;;;;5092721;28;20224;-68
2022/03/15 08:08:28;;;;;;;67.00;7.28;;;;;;;;;;5092229;28;20621;-68
2022/03/15 08:10:55;;;;;;;64.43;7.35;;;;;;;;;;5092605;28;20209;-71
2022/03/15 08:13:22;;;;;;;63.10;7.38;;;;;;;;;;5092727;28;20261;-68
2022/03/15 08:15:50;;;;;;;70.57;7.55;;;;;;;;;;5092555;28;20220;-69
2022/03/15 08:18:17;;;;;;;72.40;6.80;;;;;;;;;;5091451;28;20206;-71
2022/03/15 08:20:45;;;;;;;64.83;8.10;;;;;;;;;;5092513;28;20304;-68
2022/03/15 08:23:14;;;;;;;66.43;6.90;;;;;;;;;;5092621;28;20445;-68
2022/03/15 08:25:41;;;;;;;66.87;7.90;;;;;;;;;;5092534;28;20474;-68
2022/03/15 08:28:08;;;;;;;62.33;6.70;;;;;;;;;;5091799;28;20540;-68
2022/03/15 08:30:35;;;;;;;64.57;7.50;;;;;;;;;;5092274;28;20547;-69
2022/03/15 08:33:02;;;;;;;65.93;6.43;;;;;;;;;;5092762;28;20475;-68
2022/03/15 08:35:30;;;;;;;66.73;7.80;;;;;;;;;;5092479;28;21016;-68
2022/03/15 08:37:57;;;;;;;67.10;6.73;;;;;;;;;;5091550;28;20444;-68
2022/03/15 08:40:25;;;;;;;64.13;6.93;;;;;;;;;;5092270;28;20449;-71
2022/03/15 08:42:52;;;;;;;62.20;6.00;;;;;;;;;;5092092;28;20443;-69
2022/03/15 08:45:20;;;;;;;66.57;6.40;;;;;;;;;;5092017;28;20471;-68
2022/03/15 08:47:47;;;;;;;63.90;6.90;;;;;;;;;;5091576;28;20484;-69
2022/03/15 08:50:14;;;;;;;70.80;7.60;;;;;;;;;;5092384;28;20560;-70
2022/03/15 08:52:42;;;;;;;63.30;6.47;;;;;;;;;;5092006;28;20481;-68
2022/03/15 08:55:09;;;;;;;62.00;6.50;;;;;;;;;;5092055;28;20479;-69
2022/03/15 08:57:38;;;;;;;66.27;6.60;;;;;;;;;;5091140;28;20551;-70
2022/03/15 09:00:06;;;;;;;65.40;6.50;;;;;;;;;;5091908;28;20980;-69
2022/03/15 09:02:34;;;;;;;64.67;6.60;;;;;;;;;;5091861;28;20446;-69
2022/03/15 09:05:01;;;;;;;67.53;6.83;;;;;;;;;;5092084;28;20545;-70
2022/03/15 09:07:30;;;;;;;61.57;6.60;;;;;;;;;;5091187;28;20826;-69
2022/03/15 09:09:57;;;;;;;64.30;6.00;;;;;;;;;;5091795;28;20449;-71
2022/03/15 09:12:24;;;;;;;63.17;6.57;;;;;;;;;;5091769;28;20517;-68
2022/03/15 09:14:53;;;;;;;66.80;8.10;;;;;;;;;;5091914;28;20532;-70
2022/03/15 09:17:21;;;;;;;65.07;7.30;;;;;;;;;;5091196;28;20470;-69
2022/03/15 09:19:50;;;;;;;77.90;7.53;;;;;;;;;;5091853;28;20538;-69
2022/03/15 09:22:17;;;;;;;63.20;7.37;;;;;;;;;;5091690;28;20453;-71
2022/03/15 09:24:45;;;;;;;63.97;6.70;;;;;;;;;;5091720;28;20445;-69
2022/03/15 09:27:12;;;;;;;64.30;6.93;;;;;;;;;;5091078;28;20839;-66
2022/03/15 09:29:40;;;;;;;66.80;6.40;;;;;;;;;;5093104;28;20462;-68
2022/03/15 09:32:10;;;;;;;65.57;6.10;;;;;;;;;;5095959;28;20533;-69
2022/03/15 09:34:38;;;;;;;60.40;4.83;;;;;;;;;;5096091;28;20473;-69
2022/03/15 09:37:06;;;;;;;63.30;6.00;;;;;;;;;;5095307;28;20545;-72
2022/03/15 09:39:33;;;;;;;64.63;6.10;;;;;;;;;;5095271;28;20488;-69
2022/03/15 09:42:01;;;;;;;65.17;5.60;;;;;;;;;;5095343;28;20458;-66
2022/03/15 09:44:30;;;;;;;64.13;5.40;;;;;;;;;;5095766;28;20529;-70
2022/03/15 09:47:00;;;;;;;63.93;6.10;;;;;;;;;;5095448;28;20992;-68
2022/03/15 09:49:29;;;;;;;62.63;5.80;;;;;;;;;;5094765;28;20994;-68
2022/03/15 09:51:57;;;;;;;65.80;5.57;;;;;;;;;;5095135;28;20446;-69
2022/03/15 09:54:25;;;;;;;61.87;6.33;;;;;;;;;;5095415;28;20856;-67
2022/03/15 09:56:53;;;;;;;59.80;4.53;;;;;;;;;;5095109;28;20470;-69
2022/03/15 09:59:21;;;;;;;63.00;5.10;;;;;;;;;;5094600;28;20453;-68
2022/03/15 10:01:50;;;;;;;66.03;4.90;;;;;;;;;;5095310;28;20453;-68
2022/03/15 10:04:17;;;;;;;63.30;5.47;;;;;;;;;;5095045;28;21004;-68
2022/03/15 10:06:46;;;;;;;61.67;5.00;;;;;;;;;;5095045;28;20704;-68
2022/03/15 10:09:13;;;;;;;61.40;4.50;;;;;;;;;;5094548;28;20454;-68
2022/03/15 10:11:40;;;;;;;61.03;4.57;;;;;;;;;;5095346;28;20460;-68
2022/03/15 10:14:07;;;;;;;60.63;4.77;;;;;;;;;;5094965;28;20524;-66
2022/03/15 10:16:35;;;;;;;61.33;4.77;;;;;;;;;;5094846;28;20476;-67
2022/03/15 10:19:03;;;;;;;65.43;4.80;;;;;;;;;;5094134;28;20755;-68
2022/03/15 10:21:38;;;;;;;63.07;5.07;;;;;;;;;;5095054;28;20498;-68
2022/03/15 10:24:08;;;;;;;67.30;5.70;;;;;;;;;;5094819;28;20460;-69
2022/03/15 10:26:38;;;;;;;61.10;5.20;;;;;;;;;;5094627;28;20470;-68
2022/03/15 10:29:05;;;;;;;60.47;4.50;;;;;;;;;;5093845;28;20448;-68
2022/03/15 10:31:32;;;;;;;63.27;5.33;;;;;;;;;;5094704;28;20446;-68
2022/03/15 10:34:01;;;;;;;67.30;4.90;;;;;;;;;;5094633;28;20482;-69
2022/03/15 10:36:37;;;;;;;59.90;4.40;;;;;;;;;;5094707;28;20470;-68
2022/03/15 10:39:04;;;;;;;61.27;4.80;;;;;;;;;;5093956;28;20802;-68
2022/03/15 10:41:43;;;;;;;59.77;4.60;;;;;;;;;;5094362;28;20481;-71
2022/03/15 10:44:15;;;;;;;61.83;5.37;;;;;;;;;;5094408;28;20438;-68
2022/03/15 10:46:42;;;;;;;66.13;4.77;;;;;;;;;;5094601;28;20858;-68
2022/03/15 10:49:11;;;;;;;62.53;5.30;;;;;;;;;;5093813;28;20442;-70
2022/03/15 10:51:39;;;;;;;61.10;4.90;;;;;;;;;;5094623;28;20454;-68
2022/03/15 10:54:08;;;;;;;61.10;4.80;;;;;;;;;;5094052;28;20830;-70
2022/03/15 10:56:38;;;;;;;61.50;5.13;;;;;;;;;;5094062;28;20921;-71
2022/03/15 10:59:06;;;;;;;60.67;4.83;;;;;;;;;;5093843;28;20929;-68
2022/03/15 11:01:38;;;;;;;66.43;7.17;;;;;;;;;;5094331;28;20545;-69
2022/03/15 11:04:06;;;;;;;65.50;7.77;;;;;;;;;;5094132;28;20489;-69
2022/03/15 11:06:34;;;;;;;65.80;7.73;;;;;;;;;;5094031;28;20477;-69
2022/03/15 11:09:01;;;;;;;66.77;7.90;;;;;;;;;;5093052;28;20454;-69
2022/03/15 11:11:29;;;;;;;63.03;7.57;;;;;;;;;;5094327;28;20533;-69
2022/03/15 11:14:02;;;;;;;68.70;7.97;;;;;;;;;;5093841;28;20489;-69
2022/03/15 11:16:30;;;;;;;64.50;7.37;;;;;;;;;;5093909;28;20515;-69
2022/03/15 11:18:58;;;;;;;63.30;7.17;;;;;;;;;;5093173;28;20454;-69
2022/03/15 11:21:26;;;;;;;66.30;6.80;;;;;;;;;;5093616;28;20454;-69
2022/03/15 11:23:54;;;;;;;67.53;7.40;;;;;;;;;;5093846;28;20441;-69
2022/03/15 11:26:23;;;;;;;65.00;7.10;;;;;;;;;;5093565;28;20473;-69
2022/03/15 11:28:51;;;;;;;64.40;6.70;;;;;;;;;;5093055;28;20536;-68
2022/03/15 11:31:19;;;;;;;63.50;6.43;;;;;;;;;;5093540;28;20942;-68
2022/03/15 11:33:47;;;;;;;67.13;6.30;;;;;;;;;;5093458;28;20573;-68
2022/03/15 11:36:14;;;;;;;67.40;7.13;;;;;;;;;;5093275;28;20527;-69
2022/03/15 11:38:42;;;;;;;62.50;6.40;;;;;;;;;;5092966;28;20456;-69
2022/03/15 11:41:10;;;;;;;65.97;7.07;;;;;;;;;;5093425;28;20943;-69
2022/03/15 11:43:40;;;;;;;63.20;6.03;;;;;;;;;;5093384;28;20446;-68
2022/03/15 11:46:11;;;;;;;64.53;6.60;;;;;;;;;;5093159;28;20496;-68
2022/03/15 11:48:45;;;;;;;62.50;6.60;;;;;;;;;;5092795;28;20544;-69
2022/03/15 11:51:17;;;;;;;64.57;6.90;;;;;;;;;;5093369;28;20454;-68
2022/03/15 11:53:49;;;;;;;63.10;6.30;;;;;;;;;;5092303;28;20571;-69
2022/03/15 11:56:19;;;;;;;65.70;7.00;;;;;;;;;;5093301;28;20468;-69
2022/03/15 11:58:53;;;;;;;62.00;6.27;;;;;;;;;;5092400;28;20841;-69
2022/03/15 12:01:21;;;;;;;67.93;7.40;;;;;;;;;;5092838;28;20450;-69
2022/03/15 12:03:51;;;;;;;67.53;7.37;;;;;;;;;;5092988;28;20520;-69
2022/03/15 12:06:20;;;;;;;67.77;7.97;;;;;;;;;;5093157;28;20831;-69
2022/03/15 12:08:52;;;;;;;63.97;7.57;;;;;;;;;;5092495;28;20445;-68
2022/03/15 12:11:27;;;;;;;67.87;8.40;;;;;;;;;;5092934;28;20456;-69
2022/03/15 12:13:59;;;;;;;65.47;7.53;;;;;;;;;;5092554;28;20484;-69
2022/03/15 12:16:34;;;;;;;64.27;6.83;;;;;;;;;;5092811;28;20478;-69
2022/03/15 12:19:06;;;;;;;64.30;7.60;;;;;;;;;;5092046;28;20495;-69
2022/03/15 12:21:34;;;;;;;64.97;7.50;;;;;;;;;;5092731;28;20812;-68
2022/03/15 12:24:01;;;;;;;67.87;6.80;;;;;;;;;;5092458;28;20449;-69
2022/03/15 12:26:29;;;;;;;64.03;6.60;;;;;;;;;;5092427;28;20834;-68
2022/03/15 12:28:57;;;;;;;62.37;6.97;;;;;;;;;;5091885;28;20548;-69
2022/03/15 12:31:33;;;;;;;67.27;7.10;;;;;;;;;;5092423;28;21000;-68
2022/03/15 12:34:05;;;;;;;68.60;8.53;;;;;;;;;;5092727;28;20905;-69
2022/03/15 12:36:47;;;;;;;63.07;7.00;;;;;;;;;;5092203;28;20840;-69
2022/03/15 12:39:15;;;;;;;66.07;8.07;;;;;;;;;;5091583;28;20980;-68
2022/03/15 12:41:43;;;;;;;65.77;8.17;;;;;;;;;;5092311;28;20462;-68
2022/03/15 12:44:10;;;;;;;65.80;8.60;;;;;;;;;;5092283;28;20531;-69
2022/03/15 12:46:39;;;;;;;63.80;7.43;;;;;;;;;;5092199;28;20562;-69
2022/03/15 12:49:08;;;;;;;66.20;8.37;;;;;;;;;;5091384;28;20532;-69
2022/03/15 12:51:39;;;;;;;67.37;7.60;;;;;;;;;;5092461;28;20451;-69
2022/03/15 12:54:10;;;;;;;65.83;7.83;;;;;;;;;;5092258;28;20949;-68
2022/03/15 12:56:42;;;;;;;66.70;8.17;;;;;;;;;;5092001;28;21016;-69
2022/03/15 12:59:16;;;;;;;66.47;8.10;;;;;;;;;;5091482;28;20467;-69
2022/03/15 13:01:47;;;;;;;65.17;8.13;;;;;;;;;;5092004;28;20782;-68
2022/03/15 13:04:16;;;;;;;64.80;8.07;;;;;;;;;;5091216;28;20980;-68
2022/03/15 13:06:44;;;;;;;64.60;8.40;;;;;;;;;;5092043;28;20467;-68
2022/03/15 13:09:11;;;;;;;63.87;7.80;;;;;;;;;;5091298;28;20488;-68
2022/03/15 13:11:48;;;;;;;64.30;7.80;;;;;;;;;;5091989;28;20445;-68
2022/03/15 13:14:15;;;;;;;66.77;8.43;;;;;;;;;;5091791;28;20493;-68
2022/03/15 13:16:45;;;;;;;64.10;7.30;;;;;;;;;;5091877;28;20472;-68
2022/03/15 13:19:13;;;;;;;65.10;7.30;;;;;;;;;;5091287;28;20520;-68
2022/03/15 13:21:41;;;;;;;64.20;7.93;;;;;;;;;;5091796;28;20455;-70
2022/03/15 13:24:10;;;;;;;71.13;8.90;;;;;;;;;;5091748;28;20525;-68
2022/03/15 13:26:38;;;;;;;64.17;7.30;;;;;;;;;;5091580;28;20895;-68
2022/03/15 13:29:07;;;;;;;70.73;8.10;;;;;;;;;;5091007;28;20445;-68
2022/03/15 13:31:35;;;;;;;64.83;7.63;;;;;;;;;;5092112;28;20542;-68
2022/03/15 13:34:02;;;;;;;64.80;8.00;;;;;;;;;;5091932;28;20477;-71
2022/03/15 13:36:31;;;;;;;63.50;7.60;;;;;;;;;;5091647;28;20470;-68
2022/03/15 13:39:00;;;;;;;67.53;7.37;;;;;;;;;;5090746;28;20969;-70
2022/03/15 13:41:28;;;;;;;65.37;8.10;;;;;;;;;;5091844;28;20457;-68
2022/03/15 13:43:56;;;;;;;62.63;7.23;;;;;;;;;;5091638;28;20442;-69
2022/03/15 13:46:23;;;;;;;67.17;7.87;;;;;;;;;;5091550;28;20567;-69
2022/03/15 13:48:51;;;;;;;66.17;7.80;;;;;;;;;;5090892;28;20830;-70
2022/03/15 13:51:26;;;;;;;72.27;8.53;;;;;;;;;;5091563;28;20449;-71
2022/03/15 13:53:54;;;;;;;66.40;8.07;;;;;;;;;;5091294;28;20510;-69
2022/03/15 13:56:23;;;;;;;65.00;8.37;;;;;;;;;;5091474;28;20465;-70
2022/03/15 13:58:59;;;;;;;70.90;8.70;;;;;;;;;;5090662;28;20950;-68
2022/03/15 14:01:33;;;;;;;66.37;8.93;;;;;;;;;;5091402;28;20450;-68
2022/03/15 14:04:03;;;;;;;68.47;8.77;;;;;;;;;;5094440;28;20813;-69
2022/03/15 14:06:35;;;;;;;65.47;7.97;;;;;;;;;;5111508;28;20830;-70
2022/03/15 14:09:04;;;;;;;65.00;8.47;;;;;;;;;;5110888;28;20463;-68
2022/03/15 14:11:35;;;;;;;68.40;8.37;;;;;;;;;;5111404;28;20451;-69
2022/03/15 14:14:07;;;;;;;70.83;9.20;;;;;;;;;;5111097;28;20565;-70
2022/03/15 14:16:38;;;;;;;66.10;7.90;;;;;;;;;;5113786;28;20508;-68
2022/03/15 14:19:07;;;;;;;65.33;7.83;;;;;;;;;;5113770;28;20457;-69
2022/03/15 14:21:36;;;;;;;65.00;8.33;;;;;;;;;;5115201;28;20448;-69
2022/03/15 14:24:04;;;;;;;63.90;7.83;;;;;;;;;;5092357;28;20485;-69
2022/03/15 14:26:33;;;;;;;66.33;7.53;;;;;;;;;;5094555;28;20472;-68
2022/03/15 14:29:04;;;;;;;73.73;7.77;;;;;;;;;;5093464;28;20453;-68
2022/03/15 14:31:38;;;;;;;68.70;8.63;;;;;;;;;;5094854;28;20515;-68
2022/03/15 14:34:08;;;;;;;63.90;8.27;;;;;;;;;;5095047;28;20849;-68